Time;durP1;ratioP1;P1;durP2;ratioP2;P2;SDS_P1;SDS_P2;PMS_P1;PMS_P2;Temp;Humidity;BMP_temperature;BMP_pressure;BME280_temperature;BME280_humidity;BME280_pressure;Samples;Min_cycle;Max_cycle;Signal;HPM_P1;HPM_P2
2022/03/19 00:00:21;;;;;;;;;;;9.20;64.60;;;;;;5087324;28;19920;-76
2022/03/19 00:02:47;;;;;;;;;;;9.20;64.90;;;;;;5088517;28;19908;-76
2022/03/19 00:05:13;;;;;;;;;;;9.20;64.70;;;;;;5088560;28;20351;-76
2022/03/19 00:07:42;;;;;;;;;;;9.20;64.80;;;;;;5088502;28;19928;-75
2022/03/19 00:10:08;;;;;;;;;;;9.10;64.70;;;;;;5087196;28;20045;-76
2022/03/19 00:12:35;;;;;;;;;;;9.10;64.70;;;;;;5088261;28;19919;-76
2022/03/19 00:15:00;;;;;;;;;;;9.10;64.80;;;;;;5086456;28;19912;-76
2022/03/19 00:17:26;;;;;;;;;;;9.10;65.00;;;;;;5088043;28;20369;-76
2022/03/19 00:19:52;;;;;;;;;;;9.10;64.90;;;;;;5088076;28;20335;-75
2022/03/19 00:22:17;;;;;;;;;;;9.00;65.00;;;;;;5088125;28;19916;-75
2022/03/19 00:24:43;;;;;;;;;;;9.10;66.20;;;;;;5088026;28;19916;-75
2022/03/19 00:27:08;;;;;;;;;;;9.30;66.30;;;;;;5087730;28;19961;-75
2022/03/19 00:29:34;;;;;;;;;;;9.60;66.90;;;;;;5087866;28;20369;-75
2022/03/19 00:32:00;;;;;;;;;;;9.90;66.90;;;;;;5088006;28;20112;-76
2022/03/19 00:34:25;;;;;;;;;;;10.10;66.70;;;;;;5087896;28;19916;-75
2022/03/19 00:36:51;;;;;;;;;;;10.30;67.10;;;;;;5087825;28;20324;-75
2022/03/19 00:39:17;;;;;;;;;;;10.60;67.20;;;;;;5088071;28;20015;-75
2022/03/19 00:41:42;;;;;;;;;;;10.80;67.30;;;;;;5086687;28;20384;-76
2022/03/19 00:44:08;;;;;;;;;;;10.90;67.30;;;;;;5086692;28;19954;-76
2022/03/19 00:46:34;;;;;;;;;;;11.10;67.60;;;;;;5086747;28;19924;-75
2022/03/19 00:48:59;;;;;;;;;;;11.20;67.50;;;;;;5087690;28;19912;-76
2022/03/19 00:51:25;;;;;;;;;;;11.30;67.60;;;;;;5087870;28;19923;-76
2022/03/19 00:53:51;;;;;;;;;;;11.40;67.80;;;;;;5088265;28;20052;-75
2022/03/19 00:56:16;;;;;;;;;;;11.50;67.90;;;;;;5088019;28;20020;-76
2022/03/19 00:58:42;;;;;;;;;;;11.60;68.10;;;;;;5086195;28;20372;-75
2022/03/19 01:01:08;;;;;;;;;;;11.60;68.10;;;;;;5087683;28;19908;-76
2022/03/19 01:03:33;;;;;;;;;;;11.60;68.00;;;;;;5087754;28;19916;-76
2022/03/19 01:05:59;;;;;;;;;;;11.60;68.10;;;;;;5086224;28;20439;-76
2022/03/19 01:08:24;;;;;;;;;;;11.60;68.00;;;;;;5087711;28;19915;-75
2022/03/19 01:10:50;;;;;;;;;;;11.60;67.80;;;;;;5086668;28;19919;-75
2022/03/19 01:13:16;;;;;;;;;;;11.50;67.60;;;;;;5086653;28;19917;-75
2022/03/19 01:15:41;;;;;;;;;;;11.50;67.70;;;;;;5087606;28;20429;-74
2022/03/19 01:18:07;;;;;;;;;;;11.50;67.70;;;;;;5086430;28;19912;-76
2022/03/19 01:20:33;;;;;;;;;;;11.50;67.60;;;;;;5087705;28;19916;-76
2022/03/19 01:22:59;;;;;;;;;;;11.50;67.70;;;;;;5087802;28;19916;-75
2022/03/19 01:25:25;;;;;;;;;;;11.50;67.50;;;;;;5087900;28;20321;-75
2022/03/19 01:27:51;;;;;;;;;;;11.50;67.50;;;;;;5089359;28;20427;-76
2022/03/19 01:30:17;;;;;;;;;;;11.40;67.30;;;;;;5091882;28;19912;-75
2022/03/19 01:32:43;;;;;;;;;;;11.40;67.20;;;;;;5091489;28;19912;-75
2022/03/19 01:35:10;;;;;;;;;;;11.30;67.10;;;;;;5091336;28;19950;-75
2022/03/19 01:37:36;;;;;;;;;;;11.20;67.20;;;;;;5091042;28;19924;-75
2022/03/19 01:40:01;;;;;;;;;;;11.20;67.40;;;;;;5091298;28;19912;-76
2022/03/19 01:42:31;;;;;;;;;;;11.20;67.20;;;;;;5091318;28;19908;-75
2022/03/19 01:44:58;;;;;;;;;;;11.20;67.10;;;;;;5091307;28;19998;-76
2022/03/19 01:47:24;;;;;;;;;;;11.10;66.90;;;;;;5091226;28;20358;-77
2022/03/19 01:49:50;;;;;;;;;;;11.00;66.80;;;;;;5089925;28;20011;-74
2022/03/19 01:52:15;;;;;;;;;;;10.90;66.70;;;;;;5091123;28;20382;-74
2022/03/19 01:54:42;;;;;;;;;;;10.70;66.80;;;;;;5089455;28;19916;-76
2022/03/19 01:57:10;;;;;;;;;;;10.70;67.30;;;;;;5090798;28;20302;-75
2022/03/19 01:59:36;;;;;;;;;;;10.70;67.10;;;;;;5090823;28;19908;-75
2022/03/19 02:02:03;;;;;;;;;;;10.70;67.00;;;;;;5090981;28;19968;-76
2022/03/19 02:04:28;;;;;;;;;;;10.60;67.10;;;;;;5090918;28;19908;-74
2022/03/19 02:06:54;;;;;;;;;;;10.60;67.40;;;;;;5089401;28;19915;-75
2022/03/19 02:09:20;;;;;;;;;;;10.60;67.20;;;;;;5090817;28;20366;-76
2022/03/19 02:11:46;;;;;;;;;;;10.60;67.20;;;;;;5090960;28;19938;-76
2022/03/19 02:14:12;;;;;;;;;;;10.60;67.10;;;;;;5089215;28;19915;-75
2022/03/19 02:16:39;;;;;;;;;;;10.50;67.10;;;;;;5090410;28;20358;-74
2022/03/19 02:19:04;;;;;;;;;;;10.50;67.00;;;;;;5089355;28;20029;-75
2022/03/19 02:21:40;;;;;;;;;;;10.40;66.70;;;;;;5090768;28;20442;-76
2022/03/19 02:26:50;;;;;;;;;;;10.20;66.70;;;;;;5089660;28;20023;-75
2022/03/19 02:29:16;;;;;;;;;;;10.00;66.70;;;;;;5090442;28;19912;-75
2022/03/19 02:31:44;;;;;;;;;;;10.00;66.90;;;;;;5090552;28;20359;-75
2022/03/19 02:34:09;;;;;;;;;;;9.90;66.70;;;;;;5090407;28;19919;-75
2022/03/19 02:36:35;;;;;;;;;;;9.80;66.50;;;;;;5090134;28;19916;-76
2022/03/19 02:39:21;;;;;;;;;;;9.70;66.40;;;;;;5089826;28;19967;-75
2022/03/19 02:41:48;;;;;;;;;;;9.60;66.50;;;;;;5090196;28;20003;-75
2022/03/19 02:44:15;;;;;;;;;;;9.50;66.50;;;;;;5090284;28;19915;-75
2022/03/19 02:46:43;;;;;;;;;;;9.50;66.70;;;;;;5089917;28;20303;-75
2022/03/19 02:49:08;;;;;;;;;;;9.40;66.60;;;;;;5090137;28;20389;-74
2022/03/19 02:51:38;;;;;;;;;;;9.40;66.60;;;;;;5090377;28;19916;-75
2022/03/19 02:54:05;;;;;;;;;;;9.40;66.60;;;;;;5090003;28;19919;-75
2022/03/19 02:56:33;;;;;;;;;;;9.40;66.60;;;;;;5089652;28;19927;-75
2022/03/19 02:59:08;;;;;;;;;;;9.30;66.60;;;;;;5090005;28;20354;-75
2022/03/19 03:01:34;;;;;;;;;;;9.30;66.60;;;;;;5089729;28;19918;-75
2022/03/19 03:04:00;;;;;;;;;;;9.30;66.60;;;;;;5089676;28;19908;-75
2022/03/19 03:06:25;;;;;;;;;;;9.30;66.90;;;;;;5088282;28;20058;-75
2022/03/19 03:08:51;;;;;;;;;;;9.40;67.10;;;;;;5089617;28;19912;-76
2022/03/19 03:11:17;;;;;;;;;;;9.50;67.20;;;;;;5088322;28;19919;-75
2022/03/19 03:13:44;;;;;;;;;;;9.60;67.20;;;;;;5089647;28;19917;-74
2022/03/19 03:16:10;;;;;;;;;;;9.60;67.30;;;;;;5089304;28;19927;-75
2022/03/19 03:18:37;;;;;;;;;;;9.70;67.10;;;;;;5087976;28;20385;-75
2022/03/19 03:21:02;;;;;;;;;;;9.70;67.30;;;;;;5088155;28;20409;-75
2022/03/19 03:23:28;;;;;;;;;;;9.70;67.60;;;;;;5089385;28;20015;-75
2022/03/19 03:25:53;;;;;;;;;;;9.70;67.50;;;;;;5088157;28;19931;-76
2022/03/19 03:28:19;;;;;;;;;;;9.70;67.30;;;;;;5089197;28;20270;-75
2022/03/19 03:30:45;;;;;;;;;;;9.70;67.40;;;;;;5089152;28;19912;-76
2022/03/19 03:33:10;;;;;;;;;;;9.70;67.70;;;;;;5089322;28;19916;-75
2022/03/19 03:35:36;;;;;;;;;;;9.70;67.80;;;;;;5089132;28;19908;-75
2022/03/19 03:38:02;;;;;;;;;;;9.70;67.90;;;;;;5088830;28;19962;-76
2022/03/19 03:40:27;;;;;;;;;;;9.80;68.00;;;;;;5089135;28;19912;-76
2022/03/19 03:42:54;;;;;;;;;;;9.80;68.10;;;;;;5089030;28;20696;-76
2022/03/19 03:45:20;;;;;;;;;;;9.80;68.10;;;;;;5088968;28;19927;-74
2022/03/19 03:47:45;;;;;;;;;;;9.90;68.00;;;;;;5088768;28;19916;-75
2022/03/19 03:50:11;;;;;;;;;;;9.90;68.10;;;;;;5086797;28;19965;-76
2022/03/19 03:52:37;;;;;;;;;;;9.90;68.00;;;;;;5088861;28;19909;-75
2022/03/19 03:55:05;;;;;;;;;;;9.90;67.90;;;;;;5088774;28;19908;-75
2022/03/19 03:57:34;;;;;;;;;;;9.80;67.90;;;;;;5088784;28;19939;-75
2022/03/19 04:00:03;;;;;;;;;;;9.80;67.90;;;;;;5088714;28;19924;-75
2022/03/19 04:02:28;;;;;;;;;;;9.80;68.00;;;;;;5089085;28;19934;-75
2022/03/19 04:04:54;;;;;;;;;;;9.80;68.00;;;;;;5088551;28;19912;-75
2022/03/19 04:07:19;;;;;;;;;;;9.80;68.00;;;;;;5087172;28;19919;-75
2022/03/19 04:09:45;;;;;;;;;;;9.70;67.90;;;;;;5088469;28;19916;-75
2022/03/19 04:12:10;;;;;;;;;;;9.70;67.80;;;;;;5088569;28;19916;-75
2022/03/19 04:14:36;;;;;;;;;;;9.60;67.90;;;;;;5088315;28;19912;-75
2022/03/19 04:17:04;;;;;;;;;;;9.60;68.00;;;;;;5088253;28;19920;-75
2022/03/19 04:19:30;;;;;;;;;;;9.50;67.80;;;;;;5088536;28;20433;-74
2022/03/19 04:21:55;;;;;;;;;;;9.50;68.00;;;;;;5088384;28;19999;-75
2022/03/19 04:24:21;;;;;;;;;;;9.40;68.00;;;;;;5088340;28;19969;-75
2022/03/19 04:26:47;;;;;;;;;;;9.40;68.00;;;;;;5088277;28;20002;-75
2022/03/19 04:29:12;;;;;;;;;;;9.40;68.10;;;;;;5088300;28;19922;-75
2022/03/19 04:31:38;;;;;;;;;;;9.40;68.20;;;;;;5088666;28;20045;-75
2022/03/19 04:34:04;;;;;;;;;;;9.40;68.60;;;;;;5087109;28;19912;-75
2022/03/19 04:36:29;;;;;;;;;;;9.30;68.20;;;;;;5088106;28;19916;-75
2022/03/19 04:38:55;;;;;;;;;;;9.40;68.30;;;;;;5088165;28;20003;-75
2022/03/19 04:41:21;;;;;;;;;;;9.40;68.30;;;;;;5088194;28;20435;-76
2022/03/19 04:43:46;;;;;;;;;;;9.40;68.40;;;;;;5086966;28;19912;-76
2022/03/19 04:46:12;;;;;;;;;;;9.40;68.30;;;;;;5088660;28;19930;-76
2022/03/19 04:48:37;;;;;;;;;;;9.40;68.30;;;;;;5087964;28;20274;-75
2022/03/19 04:51:03;;;;;;;;;;;9.50;68.30;;;;;;5088073;28;19954;-75
2022/03/19 04:53:29;;;;;;;;;;;9.40;68.20;;;;;;5086709;28;19908;-75
2022/03/19 04:55:54;;;;;;;;;;;9.50;68.20;;;;;;5088086;28;20075;-75
2022/03/19 04:58:20;;;;;;;;;;;9.40;68.00;;;;;;5087868;28;19961;-75
2022/03/19 05:00:46;;;;;;;;;;;9.40;68.20;;;;;;5088124;28;19913;-75
2022/03/19 05:03:13;;;;;;;;;;;9.40;68.20;;;;;;5092129;28;19918;-75
2022/03/19 05:05:38;;;;;;;;;;;9.40;68.30;;;;;;5090603;28;19923;-75
2022/03/19 05:08:05;;;;;;;;;;;9.40;68.20;;;;;;5091937;28;19916;-75
2022/03/19 05:13:15;;;;;;;;;;;9.40;68.20;;;;;;5092229;28;19919;-75
2022/03/19 05:15:41;;;;;;;;;;;9.40;68.10;;;;;;5090418;28;20369;-75
2022/03/19 05:18:06;;;;;;;;;;;9.30;68.00;;;;;;5091673;28;19943;-75
2022/03/19 05:20:32;;;;;;;;;;;9.40;68.30;;;;;;5091807;28;20363;-75
2022/03/19 05:22:58;;;;;;;;;;;9.40;68.30;;;;;;5091784;28;19976;-75
2022/03/19 05:25:23;;;;;;;;;;;9.40;68.20;;;;;;5091647;28;19912;-75
2022/03/19 05:27:49;;;;;;;;;;;9.40;68.20;;;;;;5090257;28;19919;-75
2022/03/19 05:30:15;;;;;;;;;;;9.40;68.30;;;;;;5090179;28;20366;-75
2022/03/19 05:32:41;;;;;;;;;;;9.40;68.30;;;;;;5090364;28;19912;-75
2022/03/19 05:35:07;;;;;;;;;;;9.40;68.30;;;;;;5091543;28;19908;-74
2022/03/19 05:37:32;;;;;;;;;;;9.40;68.30;;;;;;5091189;28;20332;-76
2022/03/19 05:40:00;;;;;;;;;;;9.40;68.30;;;;;;5091426;28;19958;-75
2022/03/19 05:42:28;;;;;;;;;;;9.30;68.10;;;;;;5091297;28;19912;-76
2022/03/19 05:44:53;;;;;;;;;;;9.30;68.20;;;;;;5091176;28;19912;-75
2022/03/19 05:47:21;;;;;;;;;;;9.30;68.20;;;;;;5089435;28;20455;-76
2022/03/19 05:49:46;;;;;;;;;;;9.20;68.20;;;;;;5091171;28;20387;-75
2022/03/19 05:52:12;;;;;;;;;;;9.10;68.20;;;;;;5091180;28;20279;-75
2022/03/19 05:54:37;;;;;;;;;;;9.10;68.30;;;;;;5091068;28;19916;-74
2022/03/19 05:57:03;;;;;;;;;;;9.10;68.40;;;;;;5090915;28;20227;-74
2022/03/19 05:59:29;;;;;;;;;;;9.10;68.50;;;;;;5089875;28;19951;-75
2022/03/19 06:01:54;;;;;;;;;;;9.10;68.50;;;;;;5091326;28;20314;-75
2022/03/19 06:04:20;;;;;;;;;;;9.10;68.30;;;;;;5090893;28;19959;-74
2022/03/19 06:06:45;;;;;;;;;;;9.10;68.50;;;;;;5090888;28;19965;-75
2022/03/19 06:09:11;;;;;;;;;;;9.10;68.60;;;;;;5090960;28;20007;-75
2022/03/19 06:11:38;;;;;;;;;;;9.00;68.70;;;;;;5072669;28;20010;-76
2022/03/19 06:14:04;;;;;;;;;;;9.00;68.50;;;;;;5090432;28;20022;-75
2022/03/19 06:16:29;;;;;;;;;;;9.00;68.60;;;;;;5090559;28;20007;-74
2022/03/19 06:18:55;;;;;;;;;;;9.00;68.70;;;;;;5090735;28;19919;-75
2022/03/19 06:21:23;;;;;;;;;;;9.00;68.90;;;;;;5090749;28;19916;-74
2022/03/19 06:23:49;;;;;;;;;;;9.00;68.80;;;;;;5090576;28;20278;-74
2022/03/19 06:26:15;;;;;;;;;;;9.00;68.60;;;;;;5090405;28;19958;-75
2022/03/19 06:28:41;;;;;;;;;;;9.00;68.50;;;;;;5088877;28;19994;-74
2022/03/19 06:31:06;;;;;;;;;;;9.00;68.70;;;;;;5090157;28;19919;-74
2022/03/19 06:33:32;;;;;;;;;;;9.00;68.70;;;;;;5090352;28;20049;-75
2022/03/19 06:38:42;;;;;;;;;;;9.00;68.90;;;;;;5090112;28;19946;-75
2022/03/19 06:41:09;;;;;;;;;;;9.00;68.80;;;;;;5088997;28;20370;-76
2022/03/19 06:43:35;;;;;;;;;;;8.90;68.90;;;;;;5090538;28;19912;-75
2022/03/19 06:46:00;;;;;;;;;;;9.00;69.00;;;;;;5090245;28;19908;-75
2022/03/19 06:48:26;;;;;;;;;;;9.00;68.90;;;;;;5089980;28;19916;-75
2022/03/19 06:50:53;;;;;;;;;;;9.00;69.00;;;;;;5071790;28;19926;-75
2022/03/19 06:53:19;;;;;;;;;;;9.00;68.90;;;;;;5088586;28;19908;-76
2022/03/19 06:55:45;;;;;;;;;;;9.10;68.90;;;;;;5089881;28;19908;-75
2022/03/19 06:58:10;;;;;;;;;;;9.10;69.00;;;;;;5088370;28;20374;-75
2022/03/19 07:00:37;;;;;;;;;;;9.20;69.30;;;;;;5088365;28;19912;-75
2022/03/19 07:03:03;;;;;;;;;;;9.30;69.60;;;;;;5089938;28;19912;-75
2022/03/19 07:05:30;;;;;;;;;;;9.30;69.60;;;;;;5089713;28;19915;-76
2022/03/19 07:07:56;;;;;;;;;;;9.40;70.10;;;;;;5089683;28;19947;-75
2022/03/19 07:10:22;;;;;;;;;;;9.50;69.70;;;;;;5089549;28;19916;-75
2022/03/19 07:12:52;;;;;;;;;;;9.50;69.90;;;;;;5089573;28;19915;-75
2022/03/19 07:15:19;;;;;;;;;;;9.60;69.80;;;;;;5089517;28;20289;-75
2022/03/19 07:17:44;;;;;;;;;;;9.60;69.70;;;;;;5089539;28;19924;-75
2022/03/19 07:20:11;;;;;;;;;;;9.60;70.00;;;;;;5088108;28;19916;-75
2022/03/19 07:22:55;;;;;;;;;;;9.70;69.90;;;;;;5089353;28;19908;-74
2022/03/19 07:25:26;;;;;;;;;;;9.70;69.90;;;;;;5088319;28;19947;-75
2022/03/19 07:27:52;;;;;;;;;;;9.70;70.00;;;;;;5089037;28;20385;-75
2022/03/19 07:30:18;;;;;;;;;;;9.70;70.10;;;;;;5087951;28;19918;-75
2022/03/19 07:32:43;;;;;;;;;;;9.70;70.30;;;;;;5089179;28;19919;-75
2022/03/19 07:35:09;;;;;;;;;;;9.80;70.50;;;;;;5088960;28;20378;-75
2022/03/19 07:37:37;;;;;;;;;;;9.90;70.90;;;;;;5087366;28;20405;-74
2022/03/19 07:40:03;;;;;;;;;;;10.00;71.00;;;;;;5087835;28;19915;-74
2022/03/19 07:42:29;;;;;;;;;;;10.00;71.00;;;;;;5089078;28;19908;-75
2022/03/19 07:44:55;;;;;;;;;;;10.10;71.60;;;;;;5088922;28;20380;-76
2022/03/19 07:47:21;;;;;;;;;;;10.30;71.50;;;;;;5088875;28;19961;-75
2022/03/19 07:49:46;;;;;;;;;;;10.50;71.60;;;;;;5088755;28;19918;-75
2022/03/19 07:52:12;;;;;;;;;;;10.60;71.80;;;;;;5088597;28;19908;-75
2022/03/19 07:54:38;;;;;;;;;;;10.90;72.10;;;;;;5087499;28;19916;-75
2022/03/19 07:57:07;;;;;;;;;;;11.40;72.20;;;;;;5088500;28;20298;-76
2022/03/19 07:59:33;;;;;;;;;;;11.80;71.60;;;;;;5087333;28;20359;-76
2022/03/19 08:01:59;;;;;;;;;;;12.10;71.40;;;;;;5088360;28;19915;-75
2022/03/19 08:04:25;;;;;;;;;;;12.30;70.70;;;;;;5088551;28;19912;-76
2022/03/19 08:06:55;;;;;;;;;;;12.40;70.60;;;;;;5087061;28;19943;-76
2022/03/19 08:09:21;;;;;;;;;;;12.50;70.60;;;;;;5088456;28;19961;-75
2022/03/19 08:11:47;;;;;;;;;;;12.80;70.80;;;;;;5088308;28;19908;-76
2022/03/19 08:14:14;;;;;;;;;;;13.00;70.70;;;;;;5088603;28;20418;-75
2022/03/19 08:16:43;;;;;;;;;;;13.10;70.10;;;;;;5088073;28;19922;-76
2022/03/19 08:19:12;;;;;;;;;;;13.20;69.80;;;;;;5088450;28;19913;-76
2022/03/19 08:21:38;;;;;;;;;;;13.40;69.30;;;;;;5088243;28;19965;-75
2022/03/19 08:24:07;;;;;;;;;;;13.60;69.40;;;;;;5086756;28;19919;-76
2022/03/19 08:26:33;;;;;;;;;;;13.90;69.80;;;;;;5088144;28;20001;-75
2022/03/19 08:28:58;;;;;;;;;;;14.50;69.50;;;;;;5087825;28;20365;-75
2022/03/19 08:31:24;;;;;;;;;;;15.10;68.80;;;;;;5086609;28;19912;-76
2022/03/19 08:33:50;;;;;;;;;;;15.70;68.10;;;;;;5088057;28;19915;-76
2022/03/19 08:36:15;;;;;;;;;;;16.30;67.90;;;;;;5087615;28;20025;-75
2022/03/19 08:41:25;;;;;;;;;;;17.00;65.00;;;;;;5088195;28;20293;-76
2022/03/19 08:43:50;;;;;;;;;;;17.30;65.30;;;;;;5087471;28;19975;-74
2022/03/19 08:46:16;;;;;;;;;;;17.70;65.00;;;;;;5087551;28;19931;-74
2022/03/19 08:48:42;;;;;;;;;;;18.10;65.00;;;;;;5087419;28;19915;-75
2022/03/19 08:53:51;;;;;;;;;;;18.60;64.60;;;;;;5086856;28;19919;-74
2022/03/19 08:56:17;;;;;;;;;;;18.90;64.50;;;;;;5087450;28;19916;-74
2022/03/19 08:58:43;;;;;;;;;;;19.00;63.60;;;;;;5087139;28;19912;-75
2022/03/19 09:01:08;;;;;;;;;;;19.10;63.40;;;;;;5085582;28;20026;-72
2022/03/19 09:03:34;;;;;;;;;;;19.40;63.50;;;;;;5087500;28;19912;-76
2022/03/19 09:06:00;;;;;;;;;;;19.60;62.90;;;;;;5087516;28;19916;-74
2022/03/19 09:08:26;;;;;;;;;;;20.00;63.30;;;;;;5087414;28;20139;-74
2022/03/19 09:10:52;;;;;;;;;;;20.30;63.00;;;;;;5087182;28;20359;-75
2022/03/19 09:13:17;;;;;;;;;;;20.70;62.40;;;;;;5087148;28;19995;-75
2022/03/19 09:15:43;;;;;;;;;;;20.90;61.30;;;;;;5087291;28;19918;-74
2022/03/19 09:18:09;;;;;;;;;;;20.80;61.30;;;;;;5085705;28;19943;-74
2022/03/19 09:20:34;;;;;;;;;;;20.80;61.10;;;;;;5085892;28;19912;-74
2022/03/19 09:23:02;;;;;;;;;;;20.80;60.00;;;;;;5087562;28;19912;-75
2022/03/19 09:25:28;;;;;;;;;;;21.10;60.30;;;;;;5087117;28;19919;-75
2022/03/19 09:27:53;;;;;;;;;;;21.60;60.70;;;;;;5086763;28;19916;-75
2022/03/19 09:30:19;;;;;;;;;;;22.10;60.50;;;;;;5087109;28;19926;-75
2022/03/19 09:32:44;;;;;;;;;;;22.20;59.30;;;;;;5087303;28;19916;-75
2022/03/19 09:35:10;;;;;;;;;;;22.40;59.00;;;;;;5087170;28;19916;-75
2022/03/19 09:37:36;;;;;;;;;;;22.70;59.10;;;;;;5086653;28;20337;-74
2022/03/19 09:40:02;;;;;;;;;;;23.00;59.00;;;;;;5086889;28;19912;-75
2022/03/19 09:42:28;;;;;;;;;;;23.20;58.50;;;;;;5086732;28;19912;-74
2022/03/19 09:44:53;;;;;;;;;;;23.60;59.00;;;;;;5086690;28;19982;-74
2022/03/19 09:47:19;;;;;;;;;;;23.90;58.90;;;;;;5086688;28;19912;-75
2022/03/19 09:49:44;;;;;;;;;;;24.10;58.50;;;;;;5089925;28;19923;-74
2022/03/19 09:52:11;;;;;;;;;;;24.30;58.80;;;;;;5090430;28;19947;-74
2022/03/19 09:54:37;;;;;;;;;;;24.60;59.00;;;;;;5089715;28;19936;-74
2022/03/19 09:57:02;;;;;;;;;;;25.00;58.80;;;;;;5089576;28;19934;-74
2022/03/19 09:59:28;;;;;;;;;;;25.20;58.40;;;;;;5089953;28;19922;-75
2022/03/19 10:01:54;;;;;;;;;;;25.40;58.70;;;;;;5090535;28;19955;-74
2022/03/19 10:04:20;;;;;;;;;;;25.60;58.50;;;;;;5090040;28;19923;-73
2022/03/19 10:09:39;;;;;;;;;;;25.50;57.40;;;;;;5089316;28;19955;-73
2022/03/19 10:12:10;;;;;;;;;;;25.40;57.30;;;;;;5089896;28;19908;-75
2022/03/19 10:14:35;;;;;;;;;;;25.30;56.20;;;;;;5090292;28;19986;-73
2022/03/19 10:17:02;;;;;;;;;;;25.30;55.30;;;;;;5090011;28;19968;-73
2022/03/19 10:19:28;;;;;;;;;;;25.30;55.30;;;;;;5089793;28;19920;-73
2022/03/19 10:21:55;;;;;;;;;;;25.40;55.60;;;;;;5090590;28;19968;-73
2022/03/19 10:24:23;;;;;;;;;;;25.50;56.40;;;;;;5090478;28;19935;-73
2022/03/19 10:26:49;;;;;;;;;;;25.90;54.70;;;;;;5089044;28;19908;-73
2022/03/19 10:29:17;;;;;;;;;;;26.00;55.40;;;;;;5088753;28;19923;-73
2022/03/19 10:31:46;;;;;;;;;;;26.20;55.10;;;;;;5089790;28;20061;-75
2022/03/19 10:34:12;;;;;;;;;;;26.40;54.70;;;;;;5096988;28;20009;-75
2022/03/19 10:36:39;;;;;;;;;;;26.40;54.40;;;;;;5072491;28;20376;-74
2022/03/19 10:39:11;;;;;;;;;;;26.50;55.30;;;;;;5089901;28;20011;-74
2022/03/19 10:41:37;;;;;;;;;;;26.60;55.70;;;;;;5089415;28;19908;-74
2022/03/19 10:44:13;;;;;;;;;;;26.40;55.10;;;;;;5089579;28;19919;-75
2022/03/19 10:46:42;;;;;;;;;;;26.30;55.60;;;;;;5088628;28;19919;-73
2022/03/19 10:49:14;;;;;;;;;;;26.30;55.20;;;;;;5089756;28;19919;-73
2022/03/19 10:51:42;;;;;;;;;;;26.20;55.30;;;;;;5092822;28;20010;-74
2022/03/19 10:54:11;;;;;;;;;;;26.20;56.10;;;;;;5095025;28;19908;-73
2022/03/19 10:56:37;;;;;;;;;;;26.20;56.30;;;;;;5091992;28;19931;-74
2022/03/19 10:59:03;;;;;;;;;;;26.30;55.30;;;;;;5089699;28;20441;-75
2022/03/19 11:01:29;;;;;;;;;;;26.20;55.00;;;;;;5089622;28;19929;-75
2022/03/19 11:03:55;;;;;;;;;;;25.90;53.70;;;;;;5089750;28;19978;-73
2022/03/19 11:06:23;;;;;;;;;;;25.70;53.30;;;;;;5089665;28;20324;-73
2022/03/19 11:08:48;;;;;;;;;;;25.50;54.10;;;;;;5089894;28;19908;-72
2022/03/19 11:11:16;;;;;;;;;;;25.50;53.30;;;;;;5089301;28;20021;-73
2022/03/19 11:13:44;;;;;;;;;;;25.30;52.40;;;;;;5089226;28;19957;-73
2022/03/19 11:16:11;;;;;;;;;;;25.50;53.60;;;;;;5087734;28;19923;-73
2022/03/19 11:18:37;;;;;;;;;;;25.90;53.00;;;;;;5086367;28;19984;-74
2022/03/19 11:21:04;;;;;;;;;;;26.00;52.10;;;;;;5089356;28;20396;-74
2022/03/19 11:23:33;;;;;;;;;;;26.20;52.40;;;;;;5089469;28;19917;-74
2022/03/19 11:26:01;;;;;;;;;;;26.30;52.40;;;;;;5086522;28;19916;-73
2022/03/19 11:28:27;;;;;;;;;;;26.10;52.70;;;;;;5089009;28;20395;-74
2022/03/19 11:31:00;;;;;;;;;;;25.70;49.80;;;;;;5087885;28;20003;-74
2022/03/19 11:33:30;;;;;;;;;;;24.90;49.60;;;;;;5089394;28;19912;-73
2022/03/19 11:35:58;;;;;;;;;;;24.50;50.40;;;;;;5086157;28;19908;-73
2022/03/19 11:38:24;;;;;;;;;;;24.50;50.20;;;;;;5088960;28;20406;-73
2022/03/19 11:40:55;;;;;;;;;;;24.50;50.00;;;;;;5088875;28;19920;-73
2022/03/19 11:43:26;;;;;;;;;;;24.60;49.90;;;;;;5086618;28;20007;-74
2022/03/19 11:45:54;;;;;;;;;;;24.60;50.40;;;;;;5088463;28;19931;-73
2022/03/19 11:48:37;;;;;;;;;;;24.90;51.00;;;;;;5088517;28;20582;-74
2022/03/19 11:51:25;;;;;;;;;;;25.20;50.70;;;;;;5087019;28;19908;-73
2022/03/19 11:53:58;;;;;;;;;;;25.10;49.80;;;;;;5088778;28;19991;-78
2022/03/19 11:56:28;;;;;;;;;;;25.10;49.50;;;;;;5090345;28;19912;-73
2022/03/19 11:58:53;;;;;;;;;;;25.20;48.40;;;;;;5088547;28;19928;-76
2022/03/19 12:01:39;;;;;;;;;;;25.20;48.30;;;;;;5087802;28;19912;-74
2022/03/19 12:04:04;;;;;;;;;;;25.40;48.20;;;;;;5083679;28;19938;-74
2022/03/19 12:06:31;;;;;;;;;;;25.00;47.00;;;;;;5087949;28;19912;-74
2022/03/19 12:08:57;;;;;;;;;;;24.60;47.70;;;;;;5087483;28;19912;-75
2022/03/19 12:11:22;;;;;;;;;;;24.70;47.40;;;;;;5087046;28;19960;-74
2022/03/19 12:13:49;;;;;;;;;;;24.80;47.80;;;;;;5090066;28;20014;-75
2022/03/19 12:16:34;;;;;;;;;;;24.80;47.40;;;;;;5087697;28;20366;-74
2022/03/19 12:18:59;;;;;;;;;;;24.70;47.70;;;;;;5085341;28;20247;-74
2022/03/19 12:21:25;;;;;;;;;;;24.30;47.20;;;;;;5087905;28;19923;-74
2022/03/19 12:23:53;;;;;;;;;;;24.30;47.90;;;;;;5087428;28;19933;-75
2022/03/19 12:26:22;;;;;;;;;;;24.30;48.10;;;;;;5085268;28;19955;-74
2022/03/19 12:29:02;;;;;;;;;;;24.60;48.30;;;;;;5087387;28;19973;-74
2022/03/19 12:31:29;;;;;;;;;;;24.80;48.10;;;;;;5084971;28;19933;-74
2022/03/19 12:33:55;;;;;;;;;;;25.00;48.00;;;;;;5086826;28;19961;-74
2022/03/19 12:36:20;;;;;;;;;;;25.10;47.70;;;;;;5088299;28;20413;-73
2022/03/19 12:38:48;;;;;;;;;;;25.30;48.10;;;;;;5085234;28;19924;-74
2022/03/19 12:41:24;;;;;;;;;;;25.50;48.00;;;;;;5087123;28;19916;-76
2022/03/19 12:43:50;;;;;;;;;;;25.30;48.10;;;;;;5086974;28;19912;-75
2022/03/19 12:46:29;;;;;;;;;;;24.80;47.20;;;;;;5087527;28;20040;-76
2022/03/19 12:49:02;;;;;;;;;;;24.10;47.20;;;;;;5086027;28;19953;-74
2022/03/19 12:51:28;;;;;;;;;;;24.00;48.30;;;;;;5087100;28;19912;-74
2022/03/19 12:53:54;;;;;;;;;;;24.10;48.00;;;;;;5086581;28;19924;-73
2022/03/19 12:56:22;;;;;;;;;;;24.20;48.10;;;;;;5086497;28;20215;-75
2022/03/19 12:58:49;;;;;;;;;;;24.20;48.00;;;;;;5086924;28;19912;-75
2022/03/19 13:01:16;;;;;;;;;;;24.10;48.20;;;;;;5087485;28;19908;-75
2022/03/19 13:03:42;;;;;;;;;;;24.40;48.60;;;;;;5086681;28;19912;-74
2022/03/19 13:06:11;;;;;;;;;;;24.50;47.80;;;;;;5089813;28;19911;-74
2022/03/19 13:08:50;;;;;;;;;;;24.30;47.60;;;;;;5092730;28;19968;-74
2022/03/19 13:11:17;;;;;;;;;;;24.00;47.40;;;;;;5095736;28;19912;-72
2022/03/19 13:13:44;;;;;;;;;;;24.00;48.00;;;;;;5097492;28;19999;-73
2022/03/19 13:16:11;;;;;;;;;;;24.00;47.20;;;;;;5091749;28;19938;-74
2022/03/19 13:18:37;;;;;;;;;;;23.80;47.80;;;;;;5079565;28;20389;-74
2022/03/19 13:21:04;;;;;;;;;;;23.80;47.40;;;;;;5097392;28;19916;-74
2022/03/19 13:23:30;;;;;;;;;;;23.70;47.30;;;;;;5092468;28;19965;-73
2022/03/19 13:25:56;;;;;;;;;;;23.70;47.50;;;;;;5091438;28;19950;-73
2022/03/19 13:28:22;;;;;;;;;;;23.70;47.40;;;;;;5091495;28;20371;-74
2022/03/19 13:30:49;;;;;;;;;;;23.50;47.40;;;;;;5090968;28;19913;-74
2022/03/19 13:33:16;;;;;;;;;;;23.60;47.80;;;;;;5091320;28;20336;-74
2022/03/19 13:35:47;;;;;;;;;;;23.60;47.80;;;;;;5091181;28;20378;-74
2022/03/19 13:38:14;;;;;;;;;;;23.50;47.50;;;;;;5091183;28;19942;-73
2022/03/19 13:40:40;;;;;;;;;;;23.30;47.10;;;;;;5091485;28;19931;-73
2022/03/19 13:43:06;;;;;;;;;;;23.10;47.30;;;;;;5091036;28;19965;-74
2022/03/19 13:45:33;;;;;;;;;;;23.00;47.40;;;;;;5090577;28;19939;-73
2022/03/19 13:48:08;;;;;;;;;;;23.00;47.60;;;;;;5090941;28;20369;-73
2022/03/19 13:50:38;;;;;;;;;;;23.00;47.60;;;;;;5089638;28;19912;-73
2022/03/19 13:53:07;;;;;;;;;;;23.10;47.40;;;;;;5090725;28;20323;-73
2022/03/19 13:55:35;;;;;;;;;;;23.00;46.90;;;;;;5090736;28;19916;-74
2022/03/19 13:58:06;;;;;;;;;;;22.80;46.80;;;;;;5091142;28;20026;-73
2022/03/19 14:00:33;;;;;;;;;;;22.50;46.70;;;;;;5089497;28;19919;-74
2022/03/19 14:03:12;;;;;;;;;;;21.90;46.30;;;;;;5090821;28;19915;-74
2022/03/19 14:05:39;;;;;;;;;;;21.40;46.10;;;;;;5088648;28;19912;-73
2022/03/19 14:08:06;;;;;;;;;;;20.80;45.80;;;;;;5089034;28;19928;-74
2022/03/19 14:10:39;;;;;;;;;;;20.30;45.80;;;;;;5090386;28;19909;-73
2022/03/19 14:13:06;;;;;;;;;;;19.90;45.90;;;;;;5091222;28;19911;-73
2022/03/19 14:15:39;;;;;;;;;;;19.50;46.00;;;;;;5090664;28;19909;-73
2022/03/19 14:18:06;;;;;;;;;;;19.20;46.10;;;;;;5090599;28;19912;-74
2022/03/19 14:20:32;;;;;;;;;;;18.90;45.90;;;;;;5090363;28;19919;-75
2022/03/19 14:22:57;;;;;;;;;;;18.60;45.90;;;;;;5090575;28;19920;-73
2022/03/19 14:25:23;;;;;;;;;;;18.50;46.00;;;;;;5090564;28;19938;-73
2022/03/19 14:27:49;;;;;;;;;;;18.30;46.10;;;;;;5090483;28;19912;-73
2022/03/19 14:30:15;;;;;;;;;;;18.10;45.80;;;;;;5090504;28;19913;-73
2022/03/19 14:32:41;;;;;;;;;;;18.00;46.70;;;;;;5090771;28;19915;-74
2022/03/19 14:35:31;;;;;;;;;;;17.90;46.20;;;;;;5088890;28;19915;-73